WZZ35NW ENTO-EPWA
Flight info
| Callsign | WZZ35NW |
|---|---|
| Flight time | 1h 32m |
| Altitude | 37000 |
| Route | BOMGU Y440 SABAK DCT RUMAR DCT GRUDA N191 SORIX |
| Aircraft | A321/M-SDE3FGHIRWY/LB1 |
Departure
| Time | 2026-05-07 15:14 |
|---|---|
| Airport | Sandefjord Airport, Torp (ENTO) |
Arrival
| Time | 2026-05-07 16:47 |
|---|---|
| Airport | Warsaw Chopin Airport (EPWA) |
| Time | Latitude | Longitude | Altitude | Speed | Heading |
|---|---|---|---|---|---|
| 2026-05-07 14:37 | 59.18011 | 10.25115 | 280 ft | 0 kts | 181° |
| 2026-05-07 14:43 | 59.18012 | 10.25115 | 277 ft | 0 kts | 181° |
| 2026-05-07 15:04 | 59.18032 | 10.25114 | 280 ft | 4 kts | 167° |
| 2026-05-07 15:04 | 59.18055 | 10.25093 | 280 ft | 4 kts | 131° |
| 2026-05-07 15:05 | 59.18066 | 10.25050 | 277 ft | 4 kts | 94° |
| 2026-05-07 15:05 | 59.18067 | 10.25036 | 277 ft | 2 kts | 90° |
| 2026-05-07 15:08 | 59.18066 | 10.25056 | 277 ft | 4 kts | 90° |
| 2026-05-07 15:08 | 59.18066 | 10.25131 | 277 ft | 7 kts | 90° |
| 2026-05-07 15:09 | 59.18066 | 10.25244 | 277 ft | 10 kts | 90° |
| 2026-05-07 15:09 | 59.18065 | 10.25395 | 277 ft | 12 kts | 90° |
| 2026-05-07 15:09 | 59.18100 | 10.25545 | 278 ft | 14 kts | 42° |
| 2026-05-07 15:09 | 59.18172 | 10.25684 | 279 ft | 15 kts | 48° |
| 2026-05-07 15:10 | 59.18249 | 10.25852 | 278 ft | 18 kts | 48° |
| 2026-05-07 15:10 | 59.18277 | 10.26080 | 279 ft | 18 kts | 90° |
| 2026-05-07 15:10 | 59.18337 | 10.26248 | 280 ft | 18 kts | 1° |
| 2026-05-07 15:10 | 59.18468 | 10.26241 | 282 ft | 19 kts | 0° |
| 2026-05-07 15:11 | 59.18604 | 10.26245 | 283 ft | 20 kts | 359° |
| 2026-05-07 15:11 | 59.18743 | 10.26234 | 284 ft | 20 kts | 359° |
| 2026-05-07 15:11 | 59.18887 | 10.26232 | 286 ft | 21 kts | 359° |
| 2026-05-07 15:11 | 59.19035 | 10.26230 | 287 ft | 22 kts | 360° |
| 2026-05-07 15:12 | 59.19187 | 10.26229 | 289 ft | 22 kts | 359° |
| 2026-05-07 15:12 | 59.19343 | 10.26222 | 295 ft | 23 kts | 359° |
| 2026-05-07 15:12 | 59.19501 | 10.26217 | 292 ft | 23 kts | 359° |
| 2026-05-07 15:12 | 59.19661 | 10.26213 | 294 ft | 23 kts | 359° |
| 2026-05-07 15:13 | 59.19767 | 10.26143 | 297 ft | 15 kts | 315° |
| 2026-05-07 15:13 | 59.19837 | 10.25988 | 297 ft | 16 kts | 308° |
| 2026-05-07 15:13 | 59.19823 | 10.25837 | 297 ft | 11 kts | 188° |
| 2026-05-07 15:13 | 59.19814 | 10.25837 | 297 ft | 3 kts | 181° |
| 2026-05-07 15:14 | 59.19644 | 10.25846 | 297 ft | 61 kts | 178° |
| 2026-05-07 15:14 | 59.18966 | 10.25862 | 287 ft | 132 kts | 179° |
| 2026-05-07 15:14 | 59.17868 | 10.25936 | 406 ft | 174 kts | 177° |
| 2026-05-07 15:14 | 59.16682 | 10.26049 | 1232 ft | 169 kts | 176° |
| 2026-05-07 15:15 | 59.15500 | 10.26107 | 2011 ft | 174 kts | 179° |
| 2026-05-07 15:15 | 59.14217 | 10.26104 | 2374 ft | 196 kts | 180° |
| 2026-05-07 15:15 | 59.12764 | 10.26096 | 2775 ft | 220 kts | 180° |
| 2026-05-07 15:15 | 59.11195 | 10.26161 | 3470 ft | 230 kts | 172° |
| 2026-05-07 15:16 | 59.09709 | 10.27355 | 4242 ft | 235 kts | 140° |
| 2026-05-07 15:16 | 59.08706 | 10.29888 | 4966 ft | 246 kts | 111° |
| 2026-05-07 15:16 | 59.08513 | 10.33281 | 5416 ft | 264 kts | 81° |
| 2026-05-07 15:16 | 59.08800 | 10.36864 | 6141 ft | 272 kts | 80° |
| 2026-05-07 15:17 | 59.09078 | 10.40536 | 6934 ft | 277 kts | 81° |
| 2026-05-07 15:17 | 59.09351 | 10.44279 | 7752 ft | 281 kts | 81° |
| 2026-05-07 15:17 | 59.09554 | 10.48091 | 8544 ft | 286 kts | 91° |
| 2026-05-07 15:17 | 59.09241 | 10.51920 | 9330 ft | 290 kts | 109° |
| 2026-05-07 15:18 | 59.08336 | 10.55441 | 10109 ft | 293 kts | 127° |
| 2026-05-07 15:18 | 59.06903 | 10.58358 | 10504 ft | 309 kts | 146° |
| 2026-05-07 15:18 | 59.04951 | 10.60382 | 10719 ft | 329 kts | 160° |
| 2026-05-07 15:18 | 59.02799 | 10.62088 | 11218 ft | 339 kts | 160° |
| 2026-05-07 15:19 | 59.00595 | 10.63837 | 11907 ft | 344 kts | 160° |
| 2026-05-07 15:19 | 58.98364 | 10.65618 | 12627 ft | 349 kts | 160° |
| 2026-05-07 15:19 | 58.96106 | 10.67423 | 13329 ft | 353 kts | 160° |
| 2026-05-07 15:19 | 58.93825 | 10.69256 | 14004 ft | 358 kts | 160° |
| 2026-05-07 15:20 | 58.91514 | 10.71132 | 14629 ft | 362 kts | 159° |
| 2026-05-07 15:20 | 58.89297 | 10.73559 | 15249 ft | 370 kts | 148° |
| 2026-05-07 15:20 | 58.87187 | 10.76332 | 15881 ft | 374 kts | 149° |
| 2026-05-07 15:20 | 58.85021 | 10.79157 | 16513 ft | 377 kts | 149° |
| 2026-05-07 15:21 | 58.82826 | 10.82000 | 17143 ft | 382 kts | 149° |
| 2026-05-07 15:21 | 58.80609 | 10.84860 | 17782 ft | 386 kts | 149° |
| 2026-05-07 15:21 | 58.78367 | 10.87745 | 18392 ft | 390 kts | 149° |
| 2026-05-07 15:21 | 58.76099 | 10.90659 | 18919 ft | 394 kts | 149° |
| 2026-05-07 15:22 | 58.73807 | 10.93599 | 19478 ft | 397 kts | 149° |
| 2026-05-07 15:22 | 58.71492 | 10.96562 | 20011 ft | 401 kts | 149° |
| 2026-05-07 15:22 | 58.69156 | 10.99549 | 20563 ft | 405 kts | 149° |
| 2026-05-07 15:22 | 58.66800 | 11.02561 | 21105 ft | 409 kts | 150° |
| 2026-05-07 15:23 | 58.64422 | 11.05593 | 21647 ft | 412 kts | 150° |
| 2026-05-07 15:23 | 58.62021 | 11.08647 | 22182 ft | 416 kts | 150° |
| 2026-05-07 15:23 | 58.59596 | 11.11730 | 22707 ft | 420 kts | 150° |
| 2026-05-07 15:23 | 58.57147 | 11.14841 | 23222 ft | 424 kts | 150° |
| 2026-05-07 15:24 | 58.54682 | 11.17964 | 23720 ft | 427 kts | 150° |
| 2026-05-07 15:24 | 58.52192 | 11.21118 | 24131 ft | 430 kts | 150° |
| 2026-05-07 15:24 | 58.49690 | 11.24281 | 24551 ft | 433 kts | 150° |
| 2026-05-07 15:24 | 58.47172 | 11.27460 | 24962 ft | 436 kts | 150° |
| 2026-05-07 15:25 | 58.44634 | 11.30658 | 25359 ft | 438 kts | 150° |
| 2026-05-07 15:25 | 58.42078 | 11.33865 | 25776 ft | 441 kts | 150° |
| 2026-05-07 15:25 | 58.39501 | 11.37091 | 26181 ft | 444 kts | 150° |
| 2026-05-07 15:25 | 58.36910 | 11.40328 | 26587 ft | 447 kts | 150° |
| 2026-05-07 15:26 | 58.34305 | 11.43583 | 26965 ft | 450 kts | 150° |
| 2026-05-07 15:26 | 58.31681 | 11.46864 | 27342 ft | 453 kts | 150° |
| 2026-05-07 15:26 | 58.29043 | 11.50161 | 27724 ft | 455 kts | 150° |
| 2026-05-07 15:26 | 58.26381 | 11.53477 | 28097 ft | 458 kts | 150° |
| 2026-05-07 15:27 | 58.23703 | 11.56794 | 28479 ft | 461 kts | 150° |
| 2026-05-07 15:27 | 58.21012 | 11.60114 | 28851 ft | 464 kts | 150° |
| 2026-05-07 15:27 | 58.18299 | 11.63468 | 29222 ft | 467 kts | 149° |
| 2026-05-07 15:27 | 58.15751 | 11.67203 | 29546 ft | 472 kts | 143° |
| 2026-05-07 15:28 | 58.13218 | 11.71182 | 29890 ft | 475 kts | 143° |
| 2026-05-07 15:28 | 58.10639 | 11.75238 | 30221 ft | 478 kts | 143° |
| 2026-05-07 15:28 | 58.08078 | 11.79259 | 30510 ft | 480 kts | 143° |
| 2026-05-07 15:28 | 58.05533 | 11.83240 | 30811 ft | 482 kts | 143° |
| 2026-05-07 15:29 | 58.02939 | 11.87279 | 31150 ft | 484 kts | 143° |
| 2026-05-07 15:29 | 58.00347 | 11.91309 | 31590 ft | 483 kts | 143° |
| 2026-05-07 15:29 | 57.97759 | 11.95323 | 32021 ft | 482 kts | 143° |
| 2026-05-07 15:29 | 57.95170 | 11.99324 | 32451 ft | 481 kts | 143° |
| 2026-05-07 15:30 | 57.92587 | 12.03312 | 32868 ft | 480 kts | 143° |
| 2026-05-07 15:30 | 57.90003 | 12.07300 | 33261 ft | 479 kts | 143° |
| 2026-05-07 15:30 | 57.87434 | 12.11257 | 33731 ft | 477 kts | 142° |
| 2026-05-07 15:30 | 57.84867 | 12.15204 | 34158 ft | 476 kts | 143° |
| 2026-05-07 15:31 | 57.82310 | 12.19125 | 34514 ft | 474 kts | 143° |
| 2026-05-07 15:31 | 57.79755 | 12.23027 | 34868 ft | 473 kts | 143° |
| 2026-05-07 15:31 | 57.77207 | 12.26909 | 35232 ft | 471 kts | 143° |
| 2026-05-07 15:31 | 57.74668 | 12.30778 | 35592 ft | 470 kts | 143° |
| 2026-05-07 15:32 | 57.72132 | 12.34640 | 35934 ft | 469 kts | 143° |
| 2026-05-07 15:32 | 57.69603 | 12.38483 | 36290 ft | 468 kts | 143° |
| 2026-05-07 15:32 | 57.67082 | 12.42307 | 36617 ft | 466 kts | 143° |
| 2026-05-07 15:32 | 57.64564 | 12.46118 | 36964 ft | 465 kts | 144° |
| 2026-05-07 15:33 | 57.62049 | 12.49918 | 37093 ft | 464 kts | 144° |
| 2026-05-07 15:33 | 57.59542 | 12.53695 | 37107 ft | 462 kts | 144° |
| 2026-05-07 15:33 | 57.54557 | 12.61180 | 37100 ft | 459 kts | 143° |
| 2026-05-07 15:34 | 57.49583 | 12.68619 | 37101 ft | 458 kts | 143° |
| 2026-05-07 15:34 | 57.44614 | 12.76043 | 37100 ft | 458 kts | 143° |
| 2026-05-07 15:35 | 57.39642 | 12.83436 | 37093 ft | 458 kts | 143° |
| 2026-05-07 15:35 | 57.34655 | 12.90813 | 37101 ft | 459 kts | 143° |
| 2026-05-07 15:36 | 57.29664 | 12.98181 | 37097 ft | 459 kts | 143° |
| 2026-05-07 15:36 | 57.24669 | 13.05529 | 37087 ft | 459 kts | 144° |
| 2026-05-07 15:37 | 57.19674 | 13.12855 | 37101 ft | 458 kts | 143° |
| 2026-05-07 15:37 | 57.14709 | 13.20113 | 37106 ft | 458 kts | 143° |
| 2026-05-07 15:38 | 57.09719 | 13.27381 | 37109 ft | 457 kts | 143° |
| 2026-05-07 15:38 | 57.04725 | 13.34619 | 37106 ft | 457 kts | 143° |
| 2026-05-07 15:39 | 56.99731 | 13.41837 | 37101 ft | 457 kts | 143° |
| 2026-05-07 15:39 | 56.94734 | 13.49030 | 37105 ft | 457 kts | 143° |
| 2026-05-07 15:40 | 56.90577 | 13.55000 | 37087 ft | 456 kts | 143° |
| 2026-05-07 15:40 | 56.85580 | 13.62147 | 37097 ft | 455 kts | 144° |
| 2026-05-07 15:41 | 56.79783 | 13.70399 | 37105 ft | 454 kts | 144° |
| 2026-05-07 15:41 | 56.75618 | 13.76324 | 37105 ft | 453 kts | 144° |
| 2026-05-07 15:42 | 56.70639 | 13.83372 | 37105 ft | 453 kts | 144° |
| 2026-05-07 15:42 | 56.65661 | 13.90398 | 37099 ft | 453 kts | 144° |
| 2026-05-07 15:43 | 56.60688 | 13.97410 | 37099 ft | 453 kts | 144° |
| 2026-05-07 15:43 | 56.55707 | 14.04389 | 37088 ft | 452 kts | 144° |
| 2026-05-07 15:44 | 56.50728 | 14.11334 | 37102 ft | 451 kts | 144° |
| 2026-05-07 15:44 | 56.45791 | 14.18212 | 37100 ft | 451 kts | 144° |
| 2026-05-07 15:45 | 56.40821 | 14.25119 | 37117 ft | 451 kts | 144° |
| 2026-05-07 15:45 | 56.35844 | 14.31994 | 37108 ft | 450 kts | 144° |
| 2026-05-07 15:46 | 56.28382 | 14.42255 | 37111 ft | 450 kts | 144° |
| 2026-05-07 15:47 | 56.23407 | 14.49082 | 37109 ft | 449 kts | 144° |
| 2026-05-07 15:47 | 56.18437 | 14.55883 | 37122 ft | 449 kts | 145° |
| 2026-05-07 15:48 | 56.13461 | 14.62657 | 37125 ft | 449 kts | 145° |
| 2026-05-07 15:48 | 56.08482 | 14.69404 | 37127 ft | 449 kts | 145° |
| 2026-05-07 15:49 | 56.03511 | 14.76140 | 37138 ft | 448 kts | 145° |
| 2026-05-07 15:49 | 55.98534 | 14.82853 | 37140 ft | 448 kts | 145° |
| 2026-05-07 15:50 | 55.93557 | 14.89549 | 37134 ft | 447 kts | 145° |
| 2026-05-07 15:50 | 55.88593 | 14.96211 | 37136 ft | 446 kts | 145° |
| 2026-05-07 15:51 | 55.83623 | 15.02839 | 37135 ft | 446 kts | 146° |
| 2026-05-07 15:51 | 55.78686 | 15.09392 | 37137 ft | 446 kts | 146° |
| 2026-05-07 15:52 | 55.73723 | 15.15974 | 37139 ft | 445 kts | 146° |
| 2026-05-07 15:52 | 55.68755 | 15.22532 | 37140 ft | 445 kts | 146° |
| 2026-05-07 15:53 | 55.63785 | 15.29090 | 37131 ft | 445 kts | 146° |
| 2026-05-07 15:53 | 55.58817 | 15.35613 | 37138 ft | 445 kts | 146° |
| 2026-05-07 15:54 | 55.53847 | 15.42113 | 37142 ft | 444 kts | 146° |
| 2026-05-07 15:54 | 55.48888 | 15.48599 | 37143 ft | 443 kts | 146° |
| 2026-05-07 15:55 | 55.43933 | 15.55061 | 37144 ft | 443 kts | 146° |
| 2026-05-07 15:55 | 55.38970 | 15.61495 | 37143 ft | 443 kts | 146° |
| 2026-05-07 15:56 | 55.34003 | 15.67908 | 37129 ft | 443 kts | 147° |
| 2026-05-07 15:56 | 55.29039 | 15.74299 | 37140 ft | 442 kts | 147° |
| 2026-05-07 15:57 | 55.24112 | 15.80643 | 37132 ft | 442 kts | 147° |
| 2026-05-07 15:57 | 55.19160 | 15.86994 | 37136 ft | 441 kts | 147° |
| 2026-05-07 15:58 | 55.14206 | 15.93310 | 37142 ft | 441 kts | 147° |
| 2026-05-07 15:58 | 55.09248 | 15.99612 | 37133 ft | 440 kts | 147° |
| 2026-05-07 15:59 | 55.04310 | 16.05904 | 37132 ft | 440 kts | 144° |
| 2026-05-07 15:59 | 54.99968 | 16.13528 | 37127 ft | 444 kts | 136° |
| 2026-05-07 16:00 | 54.95785 | 16.21445 | 37126 ft | 444 kts | 136° |
| 2026-05-07 16:00 | 54.91586 | 16.29327 | 37130 ft | 444 kts | 136° |
| 2026-05-07 16:01 | 54.87387 | 16.37199 | 37128 ft | 444 kts | 136° |
| 2026-05-07 16:01 | 54.83182 | 16.45070 | 37128 ft | 445 kts | 136° |
| 2026-05-07 16:02 | 54.78968 | 16.52925 | 37121 ft | 445 kts | 136° |
| 2026-05-07 16:02 | 54.74753 | 16.60754 | 37129 ft | 444 kts | 137° |
| 2026-05-07 16:03 | 54.70536 | 16.68568 | 37126 ft | 443 kts | 137° |
| 2026-05-07 16:03 | 54.66325 | 16.76343 | 37122 ft | 443 kts | 137° |
| 2026-05-07 16:04 | 54.62113 | 16.84109 | 37121 ft | 443 kts | 137° |
| 2026-05-07 16:04 | 54.57888 | 16.91859 | 37099 ft | 443 kts | 137° |
| 2026-05-07 16:05 | 54.53658 | 16.99588 | 37107 ft | 444 kts | 137° |
| 2026-05-07 16:05 | 54.49420 | 17.07319 | 37112 ft | 444 kts | 137° |
| 2026-05-07 16:06 | 54.45178 | 17.15029 | 37106 ft | 443 kts | 137° |
| 2026-05-07 16:06 | 54.40939 | 17.22710 | 37104 ft | 443 kts | 137° |
| 2026-05-07 16:07 | 54.36718 | 17.30321 | 37106 ft | 443 kts | 138° |
| 2026-05-07 16:07 | 54.32468 | 17.37966 | 37104 ft | 442 kts | 138° |
| 2026-05-07 16:08 | 54.28231 | 17.45561 | 37112 ft | 440 kts | 138° |
| 2026-05-07 16:08 | 54.24008 | 17.53116 | 37096 ft | 439 kts | 138° |
| 2026-05-07 16:09 | 54.19793 | 17.60638 | 37100 ft | 437 kts | 138° |
| 2026-05-07 16:09 | 54.15578 | 17.68115 | 37091 ft | 436 kts | 138° |
| 2026-05-07 16:10 | 54.11369 | 17.75563 | 37084 ft | 436 kts | 138° |
| 2026-05-07 16:10 | 54.07162 | 17.82988 | 37088 ft | 435 kts | 139° |
| 2026-05-07 16:11 | 54.02952 | 17.90394 | 37089 ft | 435 kts | 139° |
| 2026-05-07 16:11 | 53.98750 | 17.97784 | 37080 ft | 435 kts | 139° |
| 2026-05-07 16:12 | 53.94539 | 18.05160 | 37079 ft | 435 kts | 139° |
| 2026-05-07 16:12 | 53.90325 | 18.12513 | 37045 ft | 434 kts | 139° |
| 2026-05-07 16:13 | 53.86108 | 18.19843 | 37046 ft | 435 kts | 139° |
| 2026-05-07 16:13 | 53.81869 | 18.27179 | 37054 ft | 436 kts | 139° |
| 2026-05-07 16:14 | 53.77624 | 18.34509 | 37059 ft | 437 kts | 139° |
| 2026-05-07 16:14 | 53.73372 | 18.41836 | 37059 ft | 437 kts | 139° |
| 2026-05-07 16:15 | 53.69143 | 18.49103 | 37059 ft | 437 kts | 139° |
| 2026-05-07 16:15 | 53.64882 | 18.56406 | 37042 ft | 436 kts | 140° |
| 2026-05-07 16:16 | 53.60617 | 18.63678 | 37050 ft | 437 kts | 140° |
| 2026-05-07 16:16 | 53.56339 | 18.70954 | 37055 ft | 437 kts | 140° |
| 2026-05-07 16:17 | 53.52034 | 18.78144 | 37048 ft | 434 kts | 144° |
| 2026-05-07 16:17 | 53.47299 | 18.84325 | 37058 ft | 431 kts | 148° |
| 2026-05-07 16:18 | 53.42529 | 18.90438 | 37036 ft | 431 kts | 148° |
| 2026-05-07 16:18 | 53.37775 | 18.96520 | 37035 ft | 430 kts | 148° |
| 2026-05-07 16:18 | 53.35399 | 18.99561 | 36771 ft | 428 kts | 148° |
| 2026-05-07 16:19 | 53.33040 | 19.02573 | 36502 ft | 426 kts | 148° |
| 2026-05-07 16:19 | 53.30689 | 19.05573 | 36172 ft | 424 kts | 148° |
| 2026-05-07 16:19 | 53.28344 | 19.08566 | 35522 ft | 425 kts | 148° |
| 2026-05-07 16:19 | 53.25978 | 19.11568 | 34816 ft | 428 kts | 149° |
| 2026-05-07 16:20 | 53.23593 | 19.14581 | 34085 ft | 431 kts | 149° |
| 2026-05-07 16:20 | 53.21189 | 19.17607 | 33138 ft | 435 kts | 149° |
| 2026-05-07 16:20 | 53.18777 | 19.20642 | 32513 ft | 432 kts | 149° |
| 2026-05-07 16:20 | 53.16395 | 19.23644 | 31964 ft | 427 kts | 149° |
| 2026-05-07 16:21 | 53.14039 | 19.26611 | 31439 ft | 423 kts | 149° |
| 2026-05-07 16:21 | 53.11702 | 19.29546 | 30879 ft | 420 kts | 149° |
| 2026-05-07 16:21 | 53.09376 | 19.32457 | 30316 ft | 417 kts | 149° |
| 2026-05-07 16:21 | 53.07096 | 19.35306 | 29724 ft | 414 kts | 149° |
| 2026-05-07 16:22 | 53.04811 | 19.38159 | 29180 ft | 409 kts | 149° |
| 2026-05-07 16:22 | 53.02549 | 19.40978 | 28630 ft | 404 kts | 149° |
| 2026-05-07 16:22 | 53.00313 | 19.43757 | 28080 ft | 399 kts | 149° |
| 2026-05-07 16:22 | 52.98101 | 19.46501 | 27553 ft | 395 kts | 149° |
| 2026-05-07 16:23 | 52.95904 | 19.49221 | 27026 ft | 392 kts | 149° |
| 2026-05-07 16:23 | 52.93728 | 19.51914 | 26504 ft | 389 kts | 149° |
| 2026-05-07 16:23 | 52.91574 | 19.54598 | 25981 ft | 387 kts | 149° |
| 2026-05-07 16:23 | 52.89432 | 19.57278 | 25449 ft | 385 kts | 148° |
| 2026-05-07 16:24 | 52.87301 | 19.59945 | 24970 ft | 383 kts | 148° |
| 2026-05-07 16:24 | 52.85179 | 19.62598 | 24478 ft | 382 kts | 148° |
| 2026-05-07 16:24 | 52.83064 | 19.65237 | 23987 ft | 380 kts | 148° |
| 2026-05-07 16:24 | 52.80954 | 19.67865 | 23505 ft | 379 kts | 149° |
| 2026-05-07 16:25 | 52.78852 | 19.70475 | 22994 ft | 377 kts | 148° |
| 2026-05-07 16:25 | 52.76762 | 19.73065 | 22534 ft | 373 kts | 148° |
| 2026-05-07 16:25 | 52.74697 | 19.75618 | 22089 ft | 369 kts | 148° |
| 2026-05-07 16:25 | 52.72649 | 19.78144 | 21649 ft | 365 kts | 148° |
| 2026-05-07 16:26 | 52.70662 | 19.80739 | 21215 ft | 365 kts | 142° |
| 2026-05-07 16:26 | 52.68966 | 19.83864 | 20786 ft | 368 kts | 131° |
| 2026-05-07 16:26 | 52.67605 | 19.87495 | 20313 ft | 376 kts | 125° |
| 2026-05-07 16:26 | 52.66745 | 19.89976 | 20018 ft | 376 kts | 125° |
| 2026-05-07 16:27 | 52.65033 | 19.94916 | 19409 ft | 373 kts | 124° |
| 2026-05-07 16:27 | 52.63750 | 19.98616 | 18942 ft | 371 kts | 124° |
| 2026-05-07 16:27 | 52.62472 | 20.02290 | 18499 ft | 369 kts | 124° |
| 2026-05-07 16:27 | 52.61196 | 20.05944 | 18014 ft | 367 kts | 124° |
| 2026-05-07 16:28 | 52.59932 | 20.09558 | 17562 ft | 364 kts | 124° |
| 2026-05-07 16:28 | 52.58672 | 20.13161 | 17118 ft | 362 kts | 124° |
| 2026-05-07 16:28 | 52.57415 | 20.16747 | 16677 ft | 360 kts | 124° |
| 2026-05-07 16:28 | 52.56168 | 20.20306 | 16240 ft | 359 kts | 124° |
| 2026-05-07 16:29 | 52.54935 | 20.23817 | 15976 ft | 349 kts | 124° |
| 2026-05-07 16:29 | 52.53744 | 20.27201 | 15854 ft | 336 kts | 124° |
| 2026-05-07 16:29 | 52.52589 | 20.30473 | 15671 ft | 326 kts | 125° |
| 2026-05-07 16:29 | 52.51463 | 20.33657 | 15385 ft | 320 kts | 125° |
| 2026-05-07 16:30 | 52.50350 | 20.36812 | 15127 ft | 318 kts | 124° |
| 2026-05-07 16:30 | 52.49251 | 20.39961 | 14885 ft | 317 kts | 124° |
| 2026-05-07 16:30 | 52.48161 | 20.43099 | 14677 ft | 317 kts | 124° |
| 2026-05-07 16:30 | 52.47074 | 20.46234 | 14409 ft | 316 kts | 124° |
| 2026-05-07 16:31 | 52.45992 | 20.49352 | 14094 ft | 314 kts | 124° |
| 2026-05-07 16:31 | 52.44913 | 20.52455 | 13767 ft | 313 kts | 124° |
| 2026-05-07 16:31 | 52.43838 | 20.55541 | 13430 ft | 311 kts | 124° |
| 2026-05-07 16:31 | 52.42764 | 20.58605 | 13121 ft | 309 kts | 124° |
| 2026-05-07 16:32 | 52.41694 | 20.61644 | 12802 ft | 308 kts | 124° |
| 2026-05-07 16:32 | 52.40986 | 20.63651 | 12616 ft | 307 kts | 124° |
| 2026-05-07 16:32 | 52.39920 | 20.66674 | 12315 ft | 306 kts | 124° |
| 2026-05-07 16:32 | 52.38862 | 20.69680 | 11995 ft | 305 kts | 124° |
| 2026-05-07 16:33 | 52.37807 | 20.72679 | 11692 ft | 304 kts | 124° |
| 2026-05-07 16:33 | 52.36754 | 20.75674 | 11383 ft | 302 kts | 124° |
| 2026-05-07 16:33 | 52.35707 | 20.78650 | 11077 ft | 301 kts | 123° |
| 2026-05-07 16:33 | 52.34663 | 20.81611 | 10766 ft | 300 kts | 123° |
| 2026-05-07 16:34 | 52.33620 | 20.84561 | 10479 ft | 299 kts | 123° |
| 2026-05-07 16:34 | 52.32577 | 20.87500 | 10085 ft | 299 kts | 123° |
| 2026-05-07 16:34 | 52.31536 | 20.90426 | 9710 ft | 297 kts | 123° |
| 2026-05-07 16:34 | 52.30497 | 20.93342 | 9314 ft | 296 kts | 123° |
| 2026-05-07 16:35 | 52.29461 | 20.96250 | 8911 ft | 295 kts | 122° |
| 2026-05-07 16:35 | 52.28432 | 20.99144 | 8533 ft | 294 kts | 122° |
| 2026-05-07 16:35 | 52.27263 | 21.01844 | 8151 ft | 290 kts | 135° |
| 2026-05-07 16:35 | 52.25759 | 21.03951 | 7959 ft | 281 kts | 150° |
| 2026-05-07 16:36 | 52.24053 | 21.05501 | 7973 ft | 281 kts | 155° |
| 2026-05-07 16:36 | 52.22319 | 21.06996 | 7976 ft | 282 kts | 155° |
| 2026-05-07 16:36 | 52.20603 | 21.08478 | 7646 ft | 284 kts | 155° |
| 2026-05-07 16:36 | 52.18874 | 21.09973 | 7422 ft | 277 kts | 155° |
| 2026-05-07 16:37 | 52.17204 | 21.11419 | 7300 ft | 267 kts | 155° |
| 2026-05-07 16:37 | 52.15594 | 21.12809 | 7162 ft | 257 kts | 155° |
| 2026-05-07 16:37 | 52.14039 | 21.14153 | 6999 ft | 250 kts | 155° |
| 2026-05-07 16:37 | 52.12513 | 21.15485 | 6750 ft | 247 kts | 155° |
| 2026-05-07 16:38 | 52.11009 | 21.16805 | 6521 ft | 245 kts | 155° |
| 2026-05-07 16:38 | 52.09511 | 21.18119 | 6292 ft | 244 kts | 155° |
| 2026-05-07 16:38 | 52.08017 | 21.19427 | 6063 ft | 244 kts | 155° |
| 2026-05-07 16:38 | 52.06526 | 21.20730 | 5852 ft | 243 kts | 154° |
| 2026-05-07 16:39 | 52.05041 | 21.22027 | 5616 ft | 243 kts | 154° |
| 2026-05-07 16:39 | 52.03555 | 21.23325 | 5387 ft | 242 kts | 154° |
| 2026-05-07 16:39 | 52.02068 | 21.24618 | 5164 ft | 244 kts | 155° |
| 2026-05-07 16:39 | 52.00419 | 21.25362 | 4936 ft | 249 kts | 182° |
| 2026-05-07 16:40 | 51.98800 | 21.24688 | 4694 ft | 235 kts | 213° |
| 2026-05-07 16:40 | 51.97717 | 21.22858 | 4477 ft | 221 kts | 242° |
| 2026-05-07 16:40 | 51.97099 | 21.20644 | 4238 ft | 211 kts | 257° |
| 2026-05-07 16:40 | 51.96971 | 21.18339 | 4013 ft | 202 kts | 279° |
| 2026-05-07 16:41 | 51.97436 | 21.16245 | 3791 ft | 195 kts | 295° |
| 2026-05-07 16:41 | 51.98092 | 21.14364 | 3554 ft | 188 kts | 309° |
| 2026-05-07 16:41 | 51.99043 | 21.12997 | 3322 ft | 181 kts | 320° |
| 2026-05-07 16:41 | 52.00015 | 21.11726 | 3141 ft | 178 kts | 320° |
| 2026-05-07 16:42 | 52.00991 | 21.10508 | 3040 ft | 175 kts | 324° |
| 2026-05-07 16:42 | 52.02017 | 21.09464 | 2998 ft | 172 kts | 328° |
| 2026-05-07 16:42 | 52.03032 | 21.08533 | 2995 ft | 169 kts | 329° |
| 2026-05-07 16:42 | 52.04067 | 21.07616 | 2874 ft | 168 kts | 330° |
| 2026-05-07 16:43 | 52.05053 | 21.06754 | 2686 ft | 153 kts | 330° |
| 2026-05-07 16:43 | 52.05956 | 21.05967 | 2505 ft | 142 kts | 331° |
| 2026-05-07 16:43 | 52.06801 | 21.05232 | 2314 ft | 134 kts | 332° |
| 2026-05-07 16:43 | 52.07621 | 21.04518 | 2161 ft | 134 kts | 332° |
| 2026-05-07 16:44 | 52.08438 | 21.03807 | 1988 ft | 128 kts | 333° |
| 2026-05-07 16:44 | 52.09209 | 21.03136 | 1796 ft | 125 kts | 333° |
| 2026-05-07 16:44 | 52.09964 | 21.02479 | 1637 ft | 121 kts | 333° |
| 2026-05-07 16:44 | 52.10709 | 21.01830 | 1463 ft | 122 kts | 333° |
| 2026-05-07 16:45 | 52.11455 | 21.01180 | 1299 ft | 121 kts | 333° |
| 2026-05-07 16:45 | 52.12196 | 21.00535 | 1121 ft | 122 kts | 332° |
| 2026-05-07 16:45 | 52.12942 | 20.99885 | 967 ft | 121 kts | 333° |
| 2026-05-07 16:45 | 52.13683 | 20.99236 | 797 ft | 121 kts | 332° |
| 2026-05-07 16:46 | 52.14406 | 20.98584 | 633 ft | 120 kts | 334° |
| 2026-05-07 16:46 | 52.15156 | 20.97939 | 458 ft | 121 kts | 334° |
| 2026-05-07 16:46 | 52.15897 | 20.97306 | 356 ft | 117 kts | 334° |
| 2026-05-07 16:46 | 52.16510 | 20.96786 | 338 ft | 79 kts | 332° |
| 2026-05-07 16:47 | 52.16844 | 20.96487 | 333 ft | 29 kts | 331° |
| 2026-05-07 16:47 | 52.16946 | 20.96398 | 335 ft | 13 kts | 332° |
| 2026-05-07 16:47 | 52.17035 | 20.96321 | 336 ft | 18 kts | 332° |
| 2026-05-07 16:47 | 52.17169 | 20.96250 | 334 ft | 22 kts | 345° |
| 2026-05-07 16:48 | 52.17307 | 20.96238 | 336 ft | 17 kts | 360° |
| 2026-05-07 16:48 | 52.17396 | 20.96291 | 333 ft | 13 kts | 48° |
| 2026-05-07 16:48 | 52.17437 | 20.96405 | 336 ft | 10 kts | 61° |
| 2026-05-07 16:48 | 52.17464 | 20.96488 | 335 ft | 7 kts | 64° |
| 2026-05-07 16:49 | 52.17464 | 20.96563 | 335 ft | 7 kts | 127° |
| 2026-05-07 16:49 | 52.17414 | 20.96616 | 336 ft | 10 kts | 152° |
| 2026-05-07 16:49 | 52.17351 | 20.96671 | 333 ft | 9 kts | 153° |
| 2026-05-07 16:49 | 52.17344 | 20.96674 | 333 ft | 1 kts | 172° |
| 2026-05-07 16:50 | 52.17329 | 20.96660 | 338 ft | 5 kts | 215° |
| 2026-05-07 16:50 | 52.17291 | 20.96613 | 337 ft | 6 kts | 210° |
| 2026-05-07 16:50 | 52.17279 | 20.96602 | 338 ft | 1 kts | 208° |
| 2026-05-07 16:50 | 52.17278 | 20.96601 | 338 ft | 0 kts | 208° |